createdAt,value
2023-03-22T00:01:21.910Z,5.88
2023-03-22T00:04:26.036Z,5.79
2023-03-22T00:07:30.073Z,5.86
2023-03-22T00:10:34.188Z,5.63
2023-03-22T00:13:38.136Z,5.73
2023-03-22T00:16:41.860Z,5.32
2023-03-22T00:19:46.093Z,5.49
2023-03-22T00:22:49.992Z,5.56
2023-03-22T00:25:54.358Z,5.59
2023-03-22T00:28:58.413Z,5.22
2023-03-22T00:32:02.125Z,5.57
2023-03-22T00:35:05.964Z,5.98
2023-03-22T00:38:09.825Z,5.94
2023-03-22T00:41:13.877Z,5.66
2023-03-22T00:44:17.987Z,5.78
2023-03-22T00:47:22.080Z,5.75
2023-03-22T00:50:26.544Z,5.59
2023-03-22T00:53:30.440Z,5.29
2023-03-22T00:56:34.352Z,5.63
2023-03-22T00:59:38.603Z,5.85
2023-03-22T01:02:42.596Z,5.47
2023-03-22T01:05:46.813Z,6.49
2023-03-22T01:08:51.060Z,6.99
2023-03-22T01:11:54.714Z,6.56
2023-03-22T01:14:58.863Z,6.58
2023-03-22T01:18:03.184Z,6.31
2023-03-22T01:21:07.543Z,5.49
2023-03-22T01:24:11.412Z,5.31
2023-03-22T01:27:15.209Z,5.14
2023-03-22T01:30:19.212Z,4.94
2023-03-22T01:33:23.305Z,4.89
2023-03-22T01:36:27.385Z,5.08
2023-03-22T01:39:31.523Z,4.96
2023-03-22T01:42:37.422Z,4.83
2023-03-22T01:45:41.374Z,4.83
2023-03-22T01:48:45.580Z,4.83
2023-03-22T01:51:49.572Z,4.94
2023-03-22T01:54:53.542Z,4.47
2023-03-22T01:57:57.396Z,4.07
2023-03-22T02:01:01.375Z,3.96
2023-03-22T02:04:05.306Z,3.92
2023-03-22T02:07:09.284Z,4.09
2023-03-22T02:10:14.898Z,4.19
2023-03-22T02:13:21.672Z,4.14
2023-03-22T02:16:25.735Z,3.95
2023-03-22T02:19:29.975Z,3.98
2023-03-22T02:22:33.662Z,4.11
2023-03-22T02:25:37.424Z,3.91
2023-03-22T02:28:41.686Z,3.82
2023-03-22T02:31:45.583Z,3.94
2023-03-22T02:34:51.019Z,3.71
2023-03-22T02:37:55.265Z,4.05
2023-03-22T02:40:58.878Z,5.01
2023-03-22T02:44:02.761Z,4.99
2023-03-22T02:47:06.491Z,4.39
2023-03-22T02:50:10.576Z,4.68
2023-03-22T02:53:14.722Z,4.51
2023-03-22T02:56:18.763Z,4.56
2023-03-22T02:59:22.707Z,4.01
2023-03-22T03:02:26.837Z,3.89
2023-03-22T03:05:31.100Z,4.17
2023-03-22T03:08:34.722Z,4.21
2023-03-22T03:11:38.748Z,4.42
2023-03-22T03:14:42.623Z,4.20
2023-03-22T03:17:46.815Z,4.18
2023-03-22T03:20:50.828Z,3.94
2023-03-22T03:23:54.672Z,4.13
2023-03-22T03:27:01.932Z,3.88
2023-03-22T03:30:05.827Z,4.04
2023-03-22T03:33:09.994Z,3.85
2023-03-22T03:36:14.328Z,3.85
2023-03-22T03:39:17.886Z,4.37
2023-03-22T03:42:21.825Z,4.17
2023-03-22T03:45:25.959Z,3.95
2023-03-22T03:48:30.253Z,3.81
2023-03-22T03:51:34.182Z,3.91
2023-03-22T03:54:37.985Z,4.00
2023-03-22T03:57:42.250Z,3.89
2023-03-22T04:00:46.523Z,3.88
2023-03-22T04:03:50.384Z,4.17
2023-03-22T04:06:54.007Z,3.87
2023-03-22T04:09:58.264Z,4.03
2023-03-22T04:13:02.199Z,3.70
2023-03-22T04:16:06.388Z,4.27
2023-03-22T04:19:10.356Z,4.38
2023-03-22T04:22:14.326Z,4.19
2023-03-22T04:25:18.402Z,3.83
2023-03-22T04:28:22.361Z,4.05
2023-03-22T04:31:26.481Z,3.52
2023-03-22T04:34:30.370Z,3.67
2023-03-22T04:37:34.220Z,3.80
2023-03-22T04:40:38.618Z,3.58
2023-03-22T04:43:42.534Z,3.33
2023-03-22T04:46:46.643Z,3.48
2023-03-22T04:49:50.437Z,3.74
2023-03-22T04:52:54.422Z,3.87
2023-03-22T04:55:58.798Z,4.06
2023-03-22T04:59:03.012Z,3.78
2023-03-22T05:02:06.903Z,4.08
2023-03-22T05:05:10.904Z,3.90
2023-03-22T05:08:15.081Z,4.13
2023-03-22T05:11:18.915Z,3.95
2023-03-22T05:14:23.239Z,3.83
2023-03-22T05:17:30.239Z,3.93
2023-03-22T05:20:34.230Z,3.90
2023-03-22T05:23:37.863Z,3.49
2023-03-22T05:26:42.934Z,3.40
2023-03-22T05:29:47.303Z,4.16
2023-03-22T05:32:51.271Z,4.43
2023-03-22T05:35:55.146Z,3.81
2023-03-22T05:38:59.109Z,3.93
2023-03-22T05:42:05.353Z,3.84
2023-03-22T05:45:09.799Z,3.83
2023-03-22T05:48:14.159Z,3.84
2023-03-22T05:51:17.880Z,3.84
2023-03-22T05:54:21.767Z,3.93
2023-03-22T05:57:27.058Z,3.82
2023-03-22T06:00:31.704Z,4.37
2023-03-22T06:03:35.785Z,4.42
2023-03-22T06:06:39.666Z,4.79
2023-03-22T06:09:45.830Z,4.35
2023-03-22T06:12:49.903Z,4.29
2023-03-22T06:15:54.052Z,4.50
2023-03-22T06:18:58.282Z,4.53
2023-03-22T06:22:02.311Z,4.51
2023-03-22T06:25:06.071Z,4.65
2023-03-22T06:28:10.368Z,5.08
2023-03-22T06:31:14.237Z,4.92
2023-03-22T06:34:18.068Z,5.34
2023-03-22T06:37:21.872Z,5.51
2023-03-22T06:40:25.742Z,5.69
2023-03-22T06:43:29.817Z,5.17
2023-03-22T06:46:33.918Z,5.47
2023-03-22T06:49:37.769Z,5.18
2023-03-22T06:56:12.282Z,5.74
2023-03-22T06:59:16.309Z,5.92
2023-03-22T07:02:31.564Z,5.70
2023-03-22T07:05:58.645Z,5.98
2023-03-22T07:15:59.842Z,6.33
2023-03-22T07:19:14.529Z,6.38
2023-03-22T07:22:24.201Z,6.69
2023-03-22T07:25:30.524Z,7.08
2023-03-22T07:28:40.258Z,6.59
2023-03-22T07:31:48.109Z,6.52
2023-03-22T07:45:38.786Z,4.69
2023-03-22T07:48:45.267Z,4.67
2023-03-22T07:55:25.941Z,4.38
2023-03-22T07:58:30.795Z,4.89
2023-03-22T08:05:12.616Z,5.37
2023-03-22T08:11:45.503Z,6.04
2023-03-22T08:14:54.499Z,6.11
2023-03-22T08:18:01.184Z,6.10
2023-03-22T08:21:07.081Z,6.00
2023-03-22T08:24:14.383Z,6.14
2023-03-22T08:27:27.148Z,5.45
2023-03-22T08:30:36.908Z,5.04
2023-03-22T08:33:41.693Z,5.15
2023-03-22T08:36:54.820Z,5.23
2023-03-22T08:46:54.537Z,4.68
2023-03-22T08:50:00.288Z,5.34
2023-03-22T08:53:09.199Z,4.84
2023-03-22T08:56:19.656Z,4.65
2023-03-22T08:59:29.588Z,4.74
2023-03-22T09:05:58.756Z,4.99
2023-03-22T09:09:07.448Z,4.79
2023-03-22T09:12:16.901Z,4.75
2023-03-22T09:15:21.515Z,5.01
2023-03-22T09:18:38.382Z,5.00
2023-03-22T09:21:42.492Z,4.89
2023-03-22T09:24:46.440Z,4.91
2023-03-22T09:27:52.762Z,4.59
2023-03-22T09:30:57.134Z,4.74
2023-03-22T09:34:01.107Z,4.68
2023-03-22T09:37:04.973Z,4.93
2023-03-22T09:40:09.494Z,4.89
2023-03-22T09:43:13.703Z,4.70
2023-03-22T09:46:17.945Z,4.46
2023-03-22T09:49:22.021Z,4.66
2023-03-22T09:52:25.753Z,4.70
2023-03-22T09:55:29.812Z,4.57
2023-03-22T09:58:33.690Z,4.36
2023-03-22T10:01:39.328Z,4.54
2023-03-22T10:04:43.526Z,4.43
2023-03-22T10:07:47.452Z,4.70
2023-03-22T10:10:51.807Z,4.25
2023-03-22T10:13:55.847Z,4.74
2023-03-22T10:16:59.882Z,4.49
2023-03-22T10:20:04.146Z,5.04
2023-03-22T10:23:07.989Z,5.15
2023-03-22T10:26:11.931Z,4.73
2023-03-22T10:29:15.956Z,5.14
2023-03-22T10:32:19.968Z,5.17
2023-03-22T10:35:23.812Z,5.15
2023-03-22T10:38:27.846Z,5.03
2023-03-22T10:41:31.589Z,4.76
2023-03-22T10:44:35.840Z,5.03
2023-03-22T10:47:39.980Z,5.01
2023-03-22T10:50:44.142Z,4.72
2023-03-22T10:53:48.105Z,4.31
2023-03-22T10:56:52.088Z,4.20
2023-03-22T10:59:55.887Z,4.69
2023-03-22T11:02:59.879Z,5.06
2023-03-22T11:06:04.044Z,5.03
2023-03-22T11:09:08.329Z,4.91
2023-03-22T11:12:12.381Z,5.42
2023-03-22T11:15:16.596Z,5.55
2023-03-22T11:18:20.406Z,5.14
2023-03-22T11:21:25.470Z,5.61
2023-03-22T11:24:30.930Z,5.25
2023-03-22T11:27:35.058Z,4.57
2023-03-22T11:30:39.651Z,4.83
2023-03-22T11:33:43.513Z,4.80
2023-03-22T11:39:52.810Z,4.96
2023-03-22T11:42:57.133Z,4.81
2023-03-22T11:46:01.451Z,4.19
2023-03-22T11:49:05.583Z,3.96
2023-03-22T11:52:09.809Z,4.25
2023-03-22T11:55:13.993Z,4.37
2023-03-22T11:58:18.004Z,5.20
2023-03-22T12:01:22.135Z,4.20
2023-03-22T12:04:25.845Z,4.58
2023-03-22T12:07:29.750Z,4.68
2023-03-22T12:10:36.131Z,4.69
2023-03-22T12:13:40.277Z,4.75
2023-03-22T12:16:44.361Z,4.99
2023-03-22T12:19:48.390Z,4.50
2023-03-22T12:22:52.319Z,4.10
2023-03-22T12:25:57.168Z,3.22
2023-03-22T12:29:01.210Z,2.69
2023-03-22T12:32:05.085Z,3.05
2023-03-22T12:35:17.169Z,2.78
2023-03-22T12:38:22.006Z,2.68
2023-03-22T12:41:25.857Z,2.63
2023-03-22T12:44:29.773Z,2.61
2023-03-22T12:47:33.923Z,2.64
2023-03-22T12:50:38.292Z,2.63
2023-03-22T12:53:42.070Z,2.57
2023-03-22T12:56:46.115Z,2.84
2023-03-22T12:59:50.336Z,2.85
2023-03-22T13:02:54.695Z,3.00
2023-03-22T13:05:58.657Z,3.70
2023-03-22T13:09:02.504Z,3.65
2023-03-22T13:12:06.816Z,3.51
2023-03-22T13:15:10.374Z,3.49
2023-03-22T13:18:14.486Z,3.79
2023-03-22T13:21:18.508Z,3.76
2023-03-22T13:24:22.322Z,4.44
2023-03-22T13:27:26.532Z,3.98
2023-03-22T13:30:32.894Z,4.40
2023-03-22T13:33:37.537Z,4.20
2023-03-22T13:36:41.430Z,4.82
2023-03-22T13:39:47.258Z,5.21
2023-03-22T13:42:51.592Z,4.73
2023-03-22T13:45:55.785Z,4.66
2023-03-22T13:49:00.966Z,3.83
2023-03-22T13:52:05.256Z,3.59
2023-03-22T13:55:09.184Z,3.86
2023-03-22T13:58:13.059Z,3.64
2023-03-22T14:01:17.273Z,3.64
2023-03-22T14:04:21.286Z,3.30
2023-03-22T14:07:25.259Z,3.56
2023-03-22T14:10:29.225Z,3.74
2023-03-22T14:13:33.287Z,3.75
2023-03-22T14:16:37.355Z,4.10
2023-03-22T14:19:41.251Z,3.48
